createdAt,value
2023-05-08T00:00:13.870Z,73129.34
2023-05-08T00:00:46.423Z,73141.31
2023-05-08T00:01:21.382Z,73137.31
2023-05-08T00:01:56.311Z,73141.31
2023-05-08T00:02:28.734Z,73141.31
2023-05-08T00:03:01.351Z,73141.31
2023-05-08T00:03:36.662Z,73153.28
2023-05-08T00:04:09.209Z,73149.31
2023-05-08T00:04:41.714Z,73155.28
2023-05-08T00:05:16.697Z,73147.31
2023-05-08T00:05:49.015Z,73157.28
2023-05-08T00:06:21.398Z,73153.28
2023-05-08T00:06:56.372Z,73153.28
2023-05-08T00:07:28.689Z,73159.28
2023-05-08T00:08:01.764Z,73165.28
2023-05-08T00:08:36.814Z,73163.28
2023-05-08T00:09:09.119Z,73161.28
2023-05-08T00:09:41.414Z,73155.28
2023-05-08T00:10:16.423Z,73161.28
2023-05-08T00:10:48.781Z,73165.28
2023-05-08T00:11:21.455Z,73161.28
2023-05-08T00:11:56.366Z,73165.28
2023-05-08T00:12:28.750Z,73167.25
2023-05-08T00:13:01.156Z,73169.25
2023-05-08T00:13:36.165Z,73161.28
2023-05-08T00:14:08.548Z,73167.25
2023-05-08T00:14:40.880Z,73167.25
2023-05-08T00:15:15.850Z,73165.28
2023-05-08T00:15:48.184Z,73169.25
2023-05-08T00:16:23.245Z,73167.25
2023-05-08T00:16:55.607Z,73169.25
2023-05-08T00:17:30.609Z,73171.25
2023-05-08T00:18:03.013Z,73173.25
2023-05-08T00:18:36.131Z,73165.28
2023-05-08T00:19:11.550Z,73169.25
2023-05-08T00:19:43.860Z,73167.25
2023-05-08T00:20:16.177Z,73173.25
2023-05-08T00:20:48.603Z,73169.25
2023-05-08T00:21:23.685Z,73173.25
2023-05-08T00:21:56.148Z,73175.25
2023-05-08T00:22:28.569Z,73171.25
2023-05-08T00:23:03.510Z,73163.28
2023-05-08T00:23:35.956Z,73169.25
2023-05-08T00:24:08.567Z,73173.25
2023-05-08T00:24:43.487Z,73169.25
2023-05-08T00:25:15.915Z,73173.25
2023-05-08T00:25:48.250Z,73169.25
2023-05-08T00:26:23.420Z,73173.25
2023-05-08T00:26:56.107Z,73177.25
2023-05-08T00:27:28.469Z,73173.25
2023-05-08T00:28:03.918Z,73175.25
2023-05-08T00:28:36.375Z,73179.25
2023-05-08T00:29:08.782Z,73177.25
2023-05-08T00:29:44.223Z,73173.25
2023-05-08T00:30:17.153Z,73175.25
2023-05-08T00:30:49.571Z,73177.25
2023-05-08T00:31:27.123Z,73173.25
2023-05-08T00:31:59.535Z,73173.25
2023-05-08T00:32:31.893Z,73173.25
2023-05-08T00:33:04.737Z,73177.25
2023-05-08T00:33:39.805Z,73181.25
2023-05-08T00:34:12.122Z,73177.25
2023-05-08T00:34:44.462Z,73177.25
2023-05-08T00:35:16.797Z,73177.25
2023-05-08T00:35:51.763Z,73171.25
2023-05-08T00:36:24.090Z,73175.25
2023-05-08T00:36:56.944Z,73173.25
2023-05-08T00:37:31.894Z,73173.25
2023-05-08T00:38:04.302Z,73179.25
2023-05-08T00:38:37.391Z,73177.25
2023-05-08T00:39:12.803Z,73173.25
2023-05-08T00:39:45.153Z,73173.25
2023-05-08T00:40:17.478Z,73177.25
2023-05-08T00:40:49.791Z,73171.25
2023-05-08T00:41:24.729Z,73177.25
2023-05-08T00:41:57.086Z,73177.25
2023-05-08T00:42:29.511Z,73175.25
2023-05-08T00:43:01.948Z,73169.25
2023-05-08T00:43:37.884Z,73177.25
2023-05-08T00:44:10.783Z,73177.25
2023-05-08T00:44:43.142Z,73173.25
2023-05-08T00:45:15.479Z,73177.25
2023-05-08T00:45:50.709Z,73169.25
2023-05-08T00:46:25.746Z,73173.25
2023-05-08T00:46:58.186Z,73173.25
2023-05-08T00:47:33.207Z,73173.25
2023-05-08T00:48:06.211Z,73177.25
2023-05-08T00:48:39.146Z,73169.25
2023-05-08T00:49:14.758Z,73175.25
2023-05-08T00:49:47.099Z,73177.25
2023-05-08T00:50:20.217Z,73173.25
2023-05-08T00:50:56.213Z,73169.25
2023-05-08T00:51:28.819Z,73169.25
2023-05-08T00:52:01.334Z,73171.25
2023-05-08T00:52:36.774Z,73173.25
2023-05-08T00:53:09.099Z,73175.25
2023-05-08T00:53:43.429Z,73173.25
2023-05-08T00:54:18.612Z,73171.25
2023-05-08T00:54:51.009Z,73171.25
2023-05-08T00:55:23.428Z,73169.25
2023-05-08T00:55:58.437Z,73177.25
2023-05-08T00:56:31.179Z,73173.25
2023-05-08T00:57:04.340Z,73173.25
2023-05-08T00:57:39.422Z,73181.25
2023-05-08T00:58:13.133Z,73173.25
2023-05-08T00:58:45.867Z,73173.25
2023-05-08T00:59:21.305Z,73175.25
2023-05-08T00:59:54.287Z,73177.25
2023-05-08T01:00:27.192Z,73171.25
2023-05-08T01:01:03.878Z,73181.25
2023-05-08T01:01:39.554Z,73177.25
2023-05-08T01:02:12.530Z,73179.25
2023-05-08T01:02:47.810Z,73179.25
2023-05-08T01:03:21.482Z,73181.25
2023-05-08T01:03:54.358Z,73185.22
2023-05-08T01:04:29.865Z,73179.25
2023-05-08T01:05:03.386Z,73185.22
2023-05-08T01:05:36.701Z,73185.22
2023-05-08T01:06:11.930Z,73181.25
2023-05-08T01:06:44.260Z,73189.22
2023-05-08T01:07:18.330Z,73185.22
2023-05-08T01:07:53.681Z,73185.22
2023-05-08T01:08:26.085Z,73185.22
2023-05-08T01:08:59.054Z,73185.22
2023-05-08T01:09:34.717Z,73185.22
2023-05-08T01:10:08.332Z,73181.25
2023-05-08T01:10:47.577Z,73185.22
2023-05-08T01:11:28.071Z,73181.25
2023-05-08T01:12:10.937Z,73187.22
2023-05-08T01:12:57.388Z,73189.22
2023-05-08T01:13:37.859Z,73185.22
2023-05-08T01:14:16.296Z,73185.22
2023-05-08T01:15:02.636Z,73185.22
2023-05-08T01:15:39.601Z,73185.22
2023-05-08T01:16:16.416Z,73189.22
2023-05-08T01:17:03.410Z,73189.22
2023-05-08T01:17:44.038Z,73191.22
2023-05-08T01:18:24.571Z,73191.22
2023-05-08T01:19:03.221Z,73193.22
2023-05-08T01:20:02.459Z,73195.22
2023-05-08T01:20:40.671Z,73189.22
2023-05-08T01:21:18.101Z,73195.22
2023-05-08T01:21:55.419Z,73195.22
2023-05-08T01:22:52.853Z,73189.22
2023-05-08T01:23:40.082Z,73197.22
2023-05-08T01:24:43.967Z,73193.22
2023-05-08T01:25:41.894Z,73201.19
2023-05-08T01:26:43.057Z,73193.22
2023-05-08T01:27:38.727Z,73195.22
2023-05-08T01:28:39.232Z,73197.22
2023-05-08T01:29:39.773Z,73197.22
2023-05-08T01:30:24.772Z,73197.22
2023-05-08T01:31:11.598Z,73199.22
2023-05-08T01:31:54.981Z,73199.22
2023-05-08T01:32:35.463Z,73201.19
2023-05-08T01:33:11.710Z,73203.19
2023-05-08T01:33:48.114Z,73197.22
2023-05-08T01:34:25.816Z,73201.19
2023-05-08T01:35:03.981Z,73201.19
2023-05-08T01:35:45.757Z,73197.22
2023-05-08T01:36:25.190Z,73201.19
2023-05-08T01:37:01.288Z,73201.19
2023-05-08T01:37:37.559Z,73201.19
2023-05-08T01:38:18.800Z,73193.22
2023-05-08T01:38:56.286Z,73203.19
2023-05-08T01:39:35.269Z,73203.19
2023-05-08T01:40:16.294Z,73201.19
2023-05-08T01:40:53.066Z,73201.19
2023-05-08T01:41:27.661Z,73201.19
2023-05-08T01:42:07.914Z,73197.22
2023-05-08T01:42:46.030Z,73193.22
2023-05-08T01:43:28.485Z,73197.22
2023-05-08T01:44:11.482Z,73197.22
2023-05-08T01:44:48.151Z,73197.22
2023-05-08T01:45:26.595Z,73197.22
2023-05-08T01:46:02.558Z,73197.22
2023-05-08T01:46:37.595Z,73199.22
2023-05-08T01:47:11.678Z,73201.19
2023-05-08T01:47:50.608Z,73201.19
2023-05-08T01:48:28.641Z,73201.19
2023-05-08T01:49:06.973Z,73209.19
2023-05-08T01:49:41.368Z,73201.19
2023-05-08T01:50:19.776Z,73203.19
2023-05-08T01:50:57.432Z,73203.19
2023-05-08T01:51:34.139Z,73205.19
2023-05-08T01:52:10.781Z,73205.19
2023-05-08T01:52:46.068Z,73197.22
2023-05-08T01:53:23.838Z,73203.19
2023-05-08T01:54:01.836Z,73205.19
2023-05-08T01:54:39.440Z,73199.22
2023-05-08T01:55:15.061Z,73203.19
2023-05-08T01:55:52.149Z,73209.19
2023-05-08T01:56:25.234Z,73201.19
2023-05-08T01:56:59.130Z,73199.22
2023-05-08T01:57:36.363Z,73201.19
2023-05-08T01:58:10.292Z,73201.19
2023-05-08T01:58:43.021Z,73197.22
2023-05-08T01:59:20.204Z,73197.22
2023-05-08T01:59:52.850Z,73197.22
2023-05-08T02:00:26.181Z,73195.22
2023-05-08T02:01:02.378Z,73195.22
2023-05-08T02:01:35.437Z,73201.19
2023-05-08T02:02:09.327Z,73193.22
2023-05-08T02:02:44.854Z,73197.22
2023-05-08T02:03:21.496Z,73197.22
2023-05-08T02:03:57.282Z,73197.22
2023-05-08T02:04:30.371Z,73193.22
2023-05-08T02:05:05.075Z,73197.22
2023-05-08T02:05:41.263Z,73197.22
2023-05-08T02:06:16.982Z,73197.22
2023-05-08T02:06:51.892Z,73197.22
2023-05-08T02:07:27.119Z,73193.22
2023-05-08T02:07:59.519Z,73197.22
2023-05-08T02:08:32.300Z,73197.22
2023-05-08T02:09:07.577Z,73195.22
2023-05-08T02:09:41.938Z,73197.22
2023-05-08T02:10:14.692Z,73197.22
2023-05-08T02:10:50.787Z,73193.22
2023-05-08T02:11:24.888Z,73197.22
2023-05-08T02:11:57.739Z,73201.19
2023-05-08T02:12:31.165Z,73193.22
2023-05-08T02:13:07.698Z,73195.22
2023-05-08T02:13:40.657Z,73199.22
2023-05-08T02:14:14.398Z,73195.22
2023-05-08T02:14:51.666Z,73199.22
2023-05-08T02:15:25.480Z,73201.19
2023-05-08T02:15:58.845Z,73197.22
2023-05-08T02:16:34.232Z,73193.22
2023-05-08T02:17:09.656Z,73199.22
2023-05-08T02:17:42.746Z,73197.22
2023-05-08T02:18:18.962Z,73197.22
2023-05-08T02:18:55.723Z,73205.19
2023-05-08T02:19:29.790Z,73197.22
2023-05-08T02:20:06.393Z,73201.19
2023-05-08T02:20:39.513Z,73193.22
2023-05-08T02:21:15.569Z,73193.22
2023-05-08T02:21:48.995Z,73197.22
2023-05-08T02:22:22.546Z,73197.22
2023-05-08T02:22:57.650Z,73193.22
2023-05-08T02:23:30.531Z,73197.22
2023-05-08T02:24:04.121Z,73193.22
2023-05-08T02:24:40.122Z,73197.22
2023-05-08T02:25:14.826Z,73189.22
2023-05-08T02:25:47.799Z,73197.22
2023-05-08T02:26:24.410Z,73193.22
2023-05-08T02:26:57.491Z,73197.22
2023-05-08T02:27:31.638Z,73197.22
2023-05-08T02:28:06.793Z,73197.22
2023-05-08T02:28:39.157Z,73195.22
2023-05-08T02:29:11.742Z,73201.19
2023-05-08T02:29:48.258Z,73199.22
2023-05-08T02:30:22.545Z,73205.19
2023-05-08T02:30:55.022Z,73197.22
2023-05-08T02:31:31.189Z,73195.22
2023-05-08T02:32:04.571Z,73201.19
2023-05-08T02:32:37.257Z,73201.19
2023-05-08T02:33:13.842Z,73201.19
2023-05-08T02:33:46.839Z,73201.19
2023-05-08T02:34:22.100Z,73205.19
2023-05-08T02:35:03.127Z,73201.19
2023-05-08T02:35:37.526Z,73205.19
2023-05-08T02:36:11.882Z,73205.19
2023-05-08T02:36:46.925Z,73205.19
2023-05-08T02:37:20.518Z,73205.19
2023-05-08T02:37:54.608Z,73201.19
2023-05-08T02:38:30.045Z,73201.19
2023-05-08T02:39:03.801Z,73209.19
2023-05-08T02:39:38.808Z,73207.19
2023-05-08T02:40:15.333Z,73207.19
2023-05-08T02:40:50.221Z,73205.19
2023-05-08T02:41:23.748Z,73203.19
2023-05-08T02:41:58.715Z,73205.19
2023-05-08T02:42:31.343Z,73203.19
2023-05-08T02:43:04.744Z,73205.19
2023-05-08T02:43:39.731Z,73209.19
2023-05-08T02:44:12.901Z,73213.19
2023-05-08T02:44:45.257Z,73213.19
2023-05-08T02:45:20.565Z,73209.19
2023-05-08T02:45:57.889Z,73213.19
2023-05-08T02:46:39.641Z,73209.19
2023-05-08T02:47:21.485Z,73217.16
2023-05-08T02:47:59.684Z,73215.19
2023-05-08T02:48:37.725Z,73213.19
2023-05-08T02:49:13.934Z,73213.19
2023-05-08T02:49:53.545Z,73215.19
2023-05-08T02:50:34.078Z,73217.16
2023-05-08T02:51:15.750Z,73217.16
2023-05-08T02:51:54.191Z,73217.16
2023-05-08T02:52:32.404Z,73209.19
2023-05-08T02:53:08.818Z,73215.19
2023-05-08T02:53:46.211Z,73217.16
2023-05-08T02:54:28.548Z,73219.16
2023-05-08T02:55:03.758Z,73217.16
2023-05-08T02:55:41.356Z,73217.16
2023-05-08T02:56:23.251Z,73217.16
2023-05-08T02:56:58.908Z,73217.16
2023-05-08T02:57:40.905Z,73217.16
2023-05-08T02:58:18.012Z,73217.16
2023-05-08T02:59:00.503Z,73219.16
2023-05-08T02:59:37.948Z,73221.16
2023-05-08T03:00:18.609Z,73217.16
2023-05-08T03:00:57.440Z,73217.16
2023-05-08T03:01:33.960Z,73219.16
2023-05-08T03:02:12.859Z,73215.19
2023-05-08T03:02:50.267Z,73219.16
2023-05-08T03:03:28.047Z,73217.16
2023-05-08T03:04:04.911Z,73213.19
2023-05-08T03:04:40.555Z,73217.16
2023-05-08T03:05:22.306Z,73219.16
2023-05-08T03:05:57.702Z,73221.16
2023-05-08T03:06:34.452Z,73221.16
2023-05-08T03:07:07.242Z,73225.16
2023-05-08T03:07:45.265Z,73221.16
2023-05-08T03:08:21.593Z,73221.16
2023-05-08T03:08:57.895Z,73223.16
2023-05-08T03:09:40.047Z,73217.16
2023-05-08T03:10:15.720Z,73219.16
2023-05-08T03:10:51.552Z,73221.16
2023-05-08T03:11:31.650Z,73225.16
2023-05-08T03:12:10.686Z,73225.16
2023-05-08T03:12:46.061Z,73227.16
2023-05-08T03:13:22.360Z,73225.16
2023-05-08T03:13:57.918Z,73227.16
2023-05-08T03:14:31.060Z,73225.16
2023-05-08T03:15:10.088Z,73225.16
2023-05-08T03:15:45.311Z,73221.16
2023-05-08T03:16:20.801Z,73225.16
2023-05-08T03:16:58.418Z,73221.16
2023-05-08T03:17:33.522Z,73221.16
2023-05-08T03:18:09.866Z,73225.16
2023-05-08T03:18:48.248Z,73221.16
2023-05-08T03:19:25.030Z,73217.16
2023-05-08T03:20:00.870Z,73221.16
2023-05-08T03:20:44.996Z,73223.16
2023-05-08T03:21:19.274Z,73221.16
2023-05-08T03:21:52.759Z,73221.16
2023-05-08T03:22:28.794Z,73221.16
2023-05-08T03:23:01.636Z,73219.16
2023-05-08T03:23:34.691Z,73223.16
2023-05-08T03:24:11.387Z,73213.19
2023-05-08T03:24:44.807Z,73221.16
2023-05-08T03:25:18.685Z,73221.16
2023-05-08T03:25:54.657Z,73223.16
2023-05-08T03:26:27.051Z,73221.16
2023-05-08T03:26:59.773Z,73225.16
2023-05-08T03:27:35.940Z,73217.16
2023-05-08T03:28:08.628Z,73225.16
2023-05-08T03:28:41.086Z,73225.16
2023-05-08T03:29:16.871Z,73221.16
2023-05-08T03:29:50.868Z,73221.16
2023-05-08T03:30:24.630Z,73217.16
2023-05-08T03:31:08.632Z,73223.16
2023-05-08T03:31:43.283Z,73225.16
2023-05-08T03:32:16.800Z,73221.16
2023-05-08T03:32:52.982Z,73221.16
2023-05-08T03:33:26.445Z,73223.16
2023-05-08T03:33:59.220Z,73225.16
2023-05-08T03:34:36.256Z,73221.16
2023-05-08T03:35:09.863Z,73225.16
2023-05-08T03:35:45.870Z,73219.16
2023-05-08T03:36:21.615Z,73225.16
2023-05-08T03:36:54.304Z,73229.16
2023-05-08T03:37:27.740Z,73221.16
2023-05-08T03:38:03.021Z,73225.16
2023-05-08T03:38:36.098Z,73221.16
2023-05-08T03:39:08.857Z,73225.16
2023-05-08T03:39:43.957Z,73221.16
2023-05-08T03:40:16.452Z,73221.16
2023-05-08T03:40:49.552Z,73223.16
2023-05-08T03:41:25.049Z,73223.16
2023-05-08T03:41:57.509Z,73217.16
2023-05-08T03:42:31.734Z,73217.16
2023-05-08T03:43:09.399Z,73221.16
2023-05-08T03:43:42.145Z,73221.16
2023-05-08T03:44:16.166Z,73225.16
2023-05-08T03:44:49.197Z,73225.16
2023-05-08T03:45:24.329Z,73225.16
2023-05-08T03:45:57.132Z,73223.16
2023-05-08T03:46:31.580Z,73225.16
2023-05-08T03:47:06.900Z,73227.16
2023-05-08T03:47:39.532Z,73225.16
2023-05-08T03:48:12.125Z,73221.16
2023-05-08T03:48:47.529Z,73225.16
2023-05-08T03:49:24.322Z,73223.16
2023-05-08T03:50:00.974Z,73227.16
2023-05-08T03:50:39.655Z,73225.16
2023-05-08T03:51:17.882Z,73233.13
2023-05-08T03:51:50.634Z,73227.16
2023-05-08T03:52:23.042Z,73229.16
2023-05-08T03:52:58.264Z,73223.16
2023-05-08T03:53:31.115Z,73233.13
2023-05-08T03:54:06.260Z,73231.16
2023-05-08T03:54:39.702Z,73233.13
2023-05-08T03:55:12.093Z,73237.13
2023-05-08T03:55:47.362Z,73233.13
2023-05-08T03:56:21.159Z,73231.16
2023-05-08T03:56:54.483Z,73233.13
2023-05-08T03:57:31.094Z,73237.13
2023-05-08T03:58:08.290Z,73237.13
2023-05-08T03:58:49.242Z,73241.13
2023-05-08T03:59:33.351Z,73237.13
2023-05-08T04:00:10.008Z,73241.13
2023-05-08T04:01:01.190Z,73237.13
2023-05-08T04:01:43.913Z,73241.13
2023-05-08T04:02:23.382Z,73239.13
2023-05-08T04:03:09.474Z,73241.13
2023-05-08T04:03:59.775Z,73237.13
2023-05-08T04:04:40.153Z,73239.13
2023-05-08T04:05:19.165Z,73243.13
2023-05-08T04:06:01.089Z,73239.13
2023-05-08T04:06:49.522Z,73241.13
2023-05-08T04:07:32.229Z,73241.13
2023-05-08T04:08:08.339Z,73241.13
2023-05-08T04:08:45.125Z,73241.13
2023-05-08T04:09:24.895Z,73243.13
2023-05-08T04:10:00.838Z,73251.09
2023-05-08T04:10:36.230Z,73245.13
2023-05-08T04:11:17.648Z,73249.09
2023-05-08T04:11:59.658Z,73245.13
2023-05-08T04:12:37.758Z,73247.13
2023-05-08T04:13:16.441Z,73249.09
2023-05-08T04:13:55.169Z,73249.09
2023-05-08T04:14:32.695Z,73249.09
2023-05-08T04:15:10.776Z,73255.09
2023-05-08T04:15:49.584Z,73257.09
2023-05-08T04:16:25.276Z,73251.09
2023-05-08T04:17:05.973Z,73253.09
2023-05-08T04:17:42.476Z,73253.09
2023-05-08T04:18:18.322Z,73257.09
2023-05-08T04:18:54.024Z,73261.09
2023-05-08T04:19:29.386Z,73257.09
2023-05-08T04:20:05.073Z,73259.09
2023-05-08T04:20:43.223Z,73263.09
2023-05-08T04:21:23.006Z,73267.06
2023-05-08T04:22:00.150Z,73261.09
2023-05-08T04:22:36.446Z,73263.09
2023-05-08T04:23:10.062Z,73269.06
2023-05-08T04:23:43.260Z,73269.06
2023-05-08T04:24:18.572Z,73273.06
2023-05-08T04:24:52.877Z,73273.06
2023-05-08T04:25:26.455Z,73269.06
2023-05-08T04:26:05.159Z,73273.06
2023-05-08T04:26:38.255Z,73271.06
2023-05-08T04:27:11.252Z,73279.06
2023-05-08T04:27:47.093Z,73277.06
2023-05-08T04:28:19.723Z,73275.06
2023-05-08T04:28:52.449Z,73275.06
2023-05-08T04:29:25.160Z,73273.06
2023-05-08T04:30:00.233Z,73277.06
2023-05-08T04:30:33.172Z,73277.06
2023-05-08T04:31:05.737Z,73277.06
2023-05-08T04:31:41.768Z,73275.06
2023-05-08T04:32:14.398Z,73277.06
2023-05-08T04:32:47.458Z,73277.06
2023-05-08T04:33:24.113Z,73275.06
2023-05-08T04:33:57.229Z,73277.06
2023-05-08T04:34:29.797Z,73277.06
2023-05-08T04:35:05.383Z,73277.06
2023-05-08T04:35:37.787Z,73277.06
2023-05-08T04:36:12.693Z,73275.06
2023-05-08T04:36:48.808Z,73277.06
2023-05-08T04:37:28.619Z,73279.06
2023-05-08T04:38:03.607Z,73281.06
2023-05-08T04:38:39.676Z,73281.06
2023-05-08T04:39:12.571Z,73273.06
2023-05-08T04:39:45.079Z,73281.06
2023-05-08T04:40:20.645Z,73283.03
2023-05-08T04:40:53.117Z,73277.06
2023-05-08T04:41:26.494Z,73277.06
2023-05-08T04:42:03.896Z,73277.06
2023-05-08T04:42:39.882Z,73283.03
2023-05-08T04:43:12.273Z,73281.06
2023-05-08T04:43:47.217Z,73281.06
2023-05-08T04:44:19.789Z,73281.06
2023-05-08T04:44:52.240Z,73281.06
2023-05-08T04:45:27.860Z,73279.06
2023-05-08T04:46:00.246Z,73281.06
2023-05-08T04:46:32.730Z,73281.06
2023-05-08T04:47:07.950Z,73281.06
2023-05-08T04:47:40.305Z,73277.06
2023-05-08T04:48:12.723Z,73285.03
2023-05-08T04:48:47.671Z,73281.06
2023-05-08T04:49:20.013Z,73277.06
2023-05-08T04:49:52.433Z,73277.06
2023-05-08T04:50:27.498Z,73277.06
2023-05-08T04:50:59.915Z,73281.06
2023-05-08T04:51:32.508Z,73283.03
2023-05-08T04:52:08.244Z,73281.06
2023-05-08T04:52:43.348Z,73281.06
2023-05-08T04:53:16.226Z,73281.06
2023-05-08T04:53:51.196Z,73281.06
2023-05-08T04:54:23.850Z,73289.03
2023-05-08T04:54:56.160Z,73287.03
2023-05-08T04:55:31.236Z,73277.06
2023-05-08T04:56:03.942Z,73281.06
2023-05-08T04:56:36.379Z,73281.06
2023-05-08T04:57:11.328Z,73285.03
2023-05-08T04:57:44.749Z,73285.03
2023-05-08T04:58:17.560Z,73279.06
2023-05-08T04:58:52.514Z,73289.03
2023-05-08T04:59:25.329Z,73281.06
2023-05-08T04:59:58.144Z,73281.06
2023-05-08T05:00:33.563Z,73285.03
2023-05-08T05:01:06.344Z,73283.03
2023-05-08T05:01:39.170Z,73281.06
2023-05-08T05:02:14.157Z,73281.06
2023-05-08T05:02:46.664Z,73281.06
2023-05-08T05:03:19.092Z,73281.06
2023-05-08T05:03:54.085Z,73281.06
2023-05-08T05:04:26.441Z,73279.06
2023-05-08T05:05:01.561Z,73285.03
2023-05-08T05:05:38.980Z,73281.06
2023-05-08T05:06:12.473Z,73281.06
2023-05-08T05:06:44.874Z,73281.06
2023-05-08T05:07:20.533Z,73285.03
2023-05-08T05:07:55.481Z,73285.03
2023-05-08T05:08:28.225Z,73283.03
2023-05-08T05:09:05.007Z,73281.06
2023-05-08T05:09:38.903Z,73285.03
2023-05-08T05:10:11.553Z,73285.03
2023-05-08T05:10:46.481Z,73283.03
2023-05-08T05:11:19.041Z,73287.03
2023-05-08T05:11:51.377Z,73285.03
2023-05-08T05:12:26.780Z,73289.03
2023-05-08T05:12:59.256Z,73287.03
2023-05-08T05:13:32.067Z,73287.03
2023-05-08T05:14:07.440Z,73293.03
2023-05-08T05:14:40.917Z,73293.03
2023-05-08T05:15:13.853Z,73291.03
2023-05-08T05:15:51.566Z,73293.03
2023-05-08T05:16:23.973Z,73289.03
2023-05-08T05:16:59.201Z,73289.03
2023-05-08T05:17:31.776Z,73289.03
2023-05-08T05:18:04.962Z,73289.03
2023-05-08T05:18:40.020Z,73289.03
2023-05-08T05:19:12.453Z,73293.03
2023-05-08T05:19:47.449Z,73299.00
2023-05-08T05:20:19.965Z,73297.03
2023-05-08T05:20:52.646Z,73293.03
2023-05-08T05:21:28.363Z,73301.00
2023-05-08T05:22:01.144Z,73299.00
2023-05-08T05:22:33.598Z,73299.00
2023-05-08T05:23:11.571Z,73301.00
2023-05-08T05:23:44.890Z,73301.00
2023-05-08T05:24:17.210Z,73301.00
2023-05-08T05:24:52.167Z,73303.00
2023-05-08T05:25:24.796Z,73305.00
2023-05-08T05:25:59.985Z,73301.00
2023-05-08T05:26:33.222Z,73295.03
2023-05-08T05:27:10.000Z,73301.00
2023-05-08T05:27:42.322Z,73299.00
2023-05-08T05:28:15.862Z,73301.00
2023-05-08T05:28:51.534Z,73305.00
2023-05-08T05:29:24.315Z,73309.00
2023-05-08T05:29:57.885Z,73305.00
2023-05-08T05:30:33.534Z,73305.00
2023-05-08T05:31:06.061Z,73309.00
2023-05-08T05:31:38.647Z,73305.00
2023-05-08T05:32:11.870Z,73309.00
2023-05-08T05:32:47.104Z,73307.00
2023-05-08T05:33:19.546Z,73309.00
2023-05-08T05:33:52.234Z,73309.00
2023-05-08T05:34:27.910Z,73309.00
2023-05-08T05:35:00.281Z,73311.00
2023-05-08T05:35:33.324Z,73309.00
2023-05-08T05:36:09.862Z,73313.00
2023-05-08T05:36:42.185Z,73313.00
2023-05-08T05:37:14.748Z,73311.00
2023-05-08T05:37:49.807Z,73313.00
2023-05-08T05:38:25.754Z,73313.00
2023-05-08T05:38:58.622Z,73309.00
2023-05-08T05:39:34.222Z,73316.97
2023-05-08T05:40:08.281Z,73320.97
2023-05-08T05:40:41.983Z,73316.97
2023-05-08T05:41:16.930Z,73315.00
2023-05-08T05:41:49.506Z,73320.97
2023-05-08T05:42:24.626Z,73320.97
2023-05-08T05:42:57.047Z,73316.97
2023-05-08T05:43:29.383Z,73320.97
2023-05-08T05:44:04.485Z,73313.00
2023-05-08T05:44:37.492Z,73316.97
2023-05-08T05:45:10.762Z,73313.00
2023-05-08T05:45:47.783Z,73320.97
2023-05-08T05:46:20.580Z,73320.97
2023-05-08T05:46:53.210Z,73313.00
2023-05-08T05:47:28.412Z,73316.97
2023-05-08T05:48:00.852Z,73324.97
2023-05-08T05:48:33.464Z,73316.97
2023-05-08T05:49:08.487Z,73316.97
2023-05-08T05:49:43.259Z,73316.97
2023-05-08T05:50:18.432Z,73315.00
2023-05-08T05:50:54.413Z,73322.97
2023-05-08T05:51:27.808Z,73313.00
2023-05-08T05:52:00.719Z,73320.97
2023-05-08T05:52:35.665Z,73315.00
2023-05-08T05:53:08.113Z,73313.00
2023-05-08T05:53:43.916Z,73316.97
2023-05-08T05:54:18.918Z,73313.00
2023-05-08T05:54:51.270Z,73316.97
2023-05-08T05:55:26.901Z,73315.00
2023-05-08T05:55:59.514Z,73316.97
2023-05-08T05:56:31.845Z,73322.97
2023-05-08T05:57:07.958Z,73313.00
2023-05-08T05:57:40.348Z,73324.97
2023-05-08T05:58:12.686Z,73313.00
2023-05-08T05:58:47.638Z,73316.97
2023-05-08T05:59:20.124Z,73324.97
2023-05-08T05:59:55.109Z,73320.97
2023-05-08T06:00:28.354Z,73316.97
2023-05-08T06:01:02.324Z,73320.97
2023-05-08T06:01:38.878Z,73313.00
2023-05-08T06:02:14.697Z,73316.97
2023-05-08T06:02:47.292Z,73316.97
2023-05-08T06:03:24.455Z,73316.97
2023-05-08T06:03:57.054Z,73320.97
2023-05-08T06:04:29.651Z,73320.97
2023-05-08T06:05:05.779Z,73320.97
2023-05-08T06:05:38.350Z,73320.97
2023-05-08T06:06:10.703Z,73316.97
2023-05-08T06:06:45.617Z,73320.97
2023-05-08T06:07:18.001Z,73322.97
2023-05-08T06:07:50.426Z,73320.97
2023-05-08T06:08:25.341Z,73315.00
2023-05-08T06:09:00.278Z,73316.97
2023-05-08T06:09:32.672Z,73315.00
2023-05-08T06:10:08.715Z,73316.97
2023-05-08T06:10:41.666Z,73316.97
2023-05-08T06:11:14.570Z,73316.97
2023-05-08T06:11:49.572Z,73324.97
2023-05-08T06:12:22.250Z,73313.00
2023-05-08T06:12:57.412Z,73316.97
2023-05-08T06:13:31.775Z,73320.97
2023-05-08T06:14:04.319Z,73316.97
2023-05-08T06:14:39.550Z,73316.97
2023-05-08T06:15:13.055Z,73316.97
2023-05-08T06:15:46.735Z,73313.00
2023-05-08T06:16:23.398Z,73313.00
2023-05-08T06:16:56.093Z,73315.00
2023-05-08T06:17:28.453Z,73313.00
2023-05-08T06:18:03.470Z,73316.97
2023-05-08T06:18:35.880Z,73316.97
2023-05-08T06:19:08.511Z,73316.97
2023-05-08T06:19:43.520Z,73324.97
2023-05-08T06:20:15.921Z,73316.97
2023-05-08T06:20:48.305Z,73320.97
2023-05-08T06:21:23.269Z,73320.97
2023-05-08T06:21:55.809Z,73320.97
2023-05-08T06:22:29.545Z,73324.97
2023-05-08T06:23:04.495Z,73328.97
2023-05-08T06:23:36.829Z,73328.97
2023-05-08T06:24:11.864Z,73324.97
2023-05-08T06:24:47.253Z,73324.97
2023-05-08T06:25:20.092Z,73324.97
2023-05-08T06:25:52.408Z,73324.97
2023-05-08T06:26:27.425Z,73324.97
2023-05-08T06:26:59.746Z,73328.97
2023-05-08T06:27:32.133Z,73326.97
2023-05-08T06:28:08.360Z,73322.97
2023-05-08T06:28:40.665Z,73326.97
2023-05-08T06:29:13.051Z,73326.97
2023-05-08T06:29:48.050Z,73330.97
2023-05-08T06:30:20.774Z,73326.97
2023-05-08T06:30:53.259Z,73326.97
2023-05-08T06:31:28.354Z,73326.97
2023-05-08T06:32:01.036Z,73328.97
2023-05-08T06:32:33.458Z,73332.94
2023-05-08T06:33:08.419Z,73332.94
2023-05-08T06:33:40.736Z,73328.97
2023-05-08T06:34:13.286Z,73332.94
2023-05-08T06:34:48.274Z,73332.94
2023-05-08T06:35:20.722Z,73332.94
2023-05-08T06:35:55.983Z,73326.97
2023-05-08T06:36:28.328Z,73328.97
2023-05-08T06:37:00.742Z,73328.97
2023-05-08T06:37:35.722Z,73332.94
2023-05-08T06:38:08.081Z,73330.97
2023-05-08T06:38:40.436Z,73334.94
2023-05-08T06:39:18.618Z,73332.94
2023-05-08T06:40:00.307Z,73336.94
2023-05-08T06:40:46.689Z,73328.97
2023-05-08T06:41:18.996Z,73336.94
2023-05-08T06:41:51.289Z,73334.94
2023-05-08T06:42:36.633Z,73332.94
2023-05-08T06:43:08.950Z,73336.94
2023-05-08T06:43:43.880Z,73328.97
2023-05-08T06:44:16.435Z,73332.94
2023-05-08T06:44:53.815Z,73332.94
2023-05-08T06:45:26.373Z,73330.97
2023-05-08T06:45:58.705Z,73332.94
2023-05-08T06:46:33.822Z,73336.94
2023-05-08T06:47:06.260Z,73332.94
2023-05-08T06:47:38.935Z,73336.94
2023-05-08T06:48:13.923Z,73332.94
2023-05-08T06:48:46.223Z,73336.94
2023-05-08T06:49:18.518Z,73336.94
2023-05-08T06:49:54.198Z,73336.94
2023-05-08T06:50:26.549Z,73336.94
2023-05-08T06:50:59.316Z,73332.94
2023-05-08T06:51:35.782Z,73332.94
2023-05-08T06:52:08.167Z,73334.94
2023-05-08T06:52:40.762Z,73336.94
2023-05-08T06:53:15.971Z,73332.94
2023-05-08T06:53:48.270Z,73336.94
2023-05-08T06:54:25.806Z,73338.94
2023-05-08T06:54:58.117Z,73340.94